Michel Dsr — FLTE — position and weather

sailwx.info

Track history (hours):
 
Tides and Currents Weather Stations Pressure Air Temp Water Temp Dewpoint Dewpoint Depression Visibility Wind Speed Wind Dir Waves Ship Positions

Michel Dsr

Last reported at 2014-Oct-21 22:04 UTC. Time now 2014-Oct-22 01:38 UTC.
Position N 46°12' W 001°39'.

Length 80 m; draft 6 m.

Type: Dredging. MMSI: 228344700.

Date/timePositionNaut miles runAvg speedWind from/ knotsBaromVisibWave heightAir tempDewpointWater temp
2014-Oct-21 22:04N 46°12' W 001°39'4 8.5
2014-Oct-21 21:33N 46°15' W 001°43'8 8.3
2014-Oct-21 20:33N 46°21' W 001°51'8 8.2
2014-Oct-21 19:33N 46°28' W 001°57'8 7.9
2014-Oct-21 18:33N 46°35' W 002°04'8 7.9
2014-Oct-21 17:33N 46°41' W 002°11'9 8.8
2014-Oct-21 16:33N 46°48' W 002°19'31 0.8
2014-Oct-20 00:04N 47°18' W 002°07'0 0.0
2014-Oct-19 23:07N 47°18' W 002°07'0 0.0
2014-Oct-19 21:31N 47°18' W 002°07'0 0.0
2014-Oct-19 19:22N 47°18' W 002°07'15 8.1
2014-Oct-19 17:30N 47°06' W 002°21'1 0.5
2014-Oct-19 16:24N 47°06' W 002°21'0 0.2
2014-Oct-19 14:16N 47°05' W 002°21'4 4.9
2014-Oct-19 13:29N 47°03' W 002°26'1010.8
2014-Oct-19 12:32N 46°53' W 002°27'1511.5
2014-Oct-19 11:13N 46°42' W 002°12'811.9
2014-Oct-19 10:33N 46°36' W 002°05'1212.0
2014-Oct-19 09:33N 46°26' W 001°55'1212.0
2014-Oct-19 08:33N 46°16' W 001°45'1211.7
2014-Oct-19 07:33N 46°09' W 001°32'13 8.7
2014-Oct-19 06:06N 46°09' W 001°13'15 3.9
2014-Oct-19 02:18N 46°05' W 001°34'1 0.7
2014-Oct-19 01:33N 46°05' W 001°35'0 0.0
2014-Oct-19 00:33N 46°05' W 001°35'8 7.6
2014-Oct-18 23:33N 46°06' W 001°24'8 8.1
2014-Oct-18 22:33N 46°09' W 001°13'0 0.0
2014-Oct-18 21:34N 46°09' W 001°13'17 4.9
2014-Oct-18 18:10N 46°11' W 001°38'610.6
2014-Oct-18 17:33N 46°15' W 001°44'1010.2
2014-Oct-18 16:33N 46°23' W 001°53'1010.0
2014-Oct-18 15:33N 46°31' W 002°02'1110.9
2014-Oct-18 14:33N 46°41' W 002°11'1111.3
2014-Oct-18 13:33N 46°49' W 002°21'16 4.0
2014-Oct-18 09:31N 47°05' W 002°21'0 0.4
2014-Oct-18 08:33N 47°06' W 002°21'10 9.7
2014-Oct-18 07:31N 47°15' W 002°14'10 1.0
2014-Oct-17 21:33N 47°06' W 002°21'8 2.3
2014-Oct-17 18:14N 47°08' W 002°32'811.6
2014-Oct-17 17:33N 47°11' W 002°43'1511.5
2014-Oct-17 16:14N 47°20' W 003°02'811.1
2014-Oct-17 15:33N 47°25' W 003°10'1111.1
2014-Oct-17 14:33N 47°30' W 003°24'1111.4
2014-Oct-17 13:33N 47°37' W 003°37'  
2014-Oct-13 03:23N 47°41' W 003°33'6 7.6
2014-Oct-13 02:33N 47°40' W 003°24'0 0.0
2014-Oct-13 01:33N 47°40' W 003°24'0 0.0
2014-Oct-13 00:33N 47°40' W 003°24'0 0.0
2014-Oct-12 23:33N 47°40' W 003°24'0 0.0
2014-Oct-12 22:33N 47°40' W 003°24'0 0.0
2014-Oct-12 21:33N 47°40' W 003°24'3 3.0
2014-Oct-12 20:33N 47°43' W 003°22'3 3.0
2014-Oct-12 19:33N 47°45' W 003°19'0 0.0
2014-Oct-12 18:33N 47°45' W 003°19'6 5.8
2014-Oct-12 17:33N 47°39' W 003°22'1312.6
2014-Oct-12 16:33N 47°29' W 003°11'1312.8
2014-Oct-12 15:33N 47°19' W 003°00'1413.3
2014-Oct-12 14:30N 47°12' W 002°42'16 1.1
2014-Oct-12 00:29N 47°06' W 002°21'5 5.0
2014-Oct-11 23:24N 47°11' W 002°18'  
Track history (hours):
 
Tides and Currents Weather Stations Pressure Air Temp Water Temp Dewpoint Dewpoint Depression Visibility Wind Speed Wind Dir Waves Ship Positions

Michel Dsr

Last reported at 2014-Oct-21 22:04 UTC. Time now 2014-Oct-22 01:38 UTC.
Position N 46°12' W 001°39'.

Length 80 m; draft 6 m.

Type: Dredging. MMSI: 228344700.

Date/timePositionNaut miles runAvg speedWind from/ knotsBaromVisibWave heightAir tempDewpointWater temp
2014-Oct-21 22:04N 46°12' W 001°39'4 8.5
2014-Oct-21 21:33N 46°15' W 001°43'8 8.3
2014-Oct-21 20:33N 46°21' W 001°51'8 8.2
2014-Oct-21 19:33N 46°28' W 001°57'8 7.9
2014-Oct-21 18:33N 46°35' W 002°04'8 7.9
2014-Oct-21 17:33N 46°41' W 002°11'9 8.8
2014-Oct-21 16:33N 46°48' W 002°19'31 0.8
2014-Oct-20 00:04N 47°18' W 002°07'0 0.0
2014-Oct-19 23:07N 47°18' W 002°07'0 0.0
2014-Oct-19 21:31N 47°18' W 002°07'0 0.0
2014-Oct-19 19:22N 47°18' W 002°07'15 8.1
2014-Oct-19 17:30N 47°06' W 002°21'1 0.5
2014-Oct-19 16:24N 47°06' W 002°21'0 0.2
2014-Oct-19 14:16N 47°05' W 002°21'4 4.9
2014-Oct-19 13:29N 47°03' W 002°26'1010.8
2014-Oct-19 12:32N 46°53' W 002°27'1511.5
2014-Oct-19 11:13N 46°42' W 002°12'811.9
2014-Oct-19 10:33N 46°36' W 002°05'1212.0
2014-Oct-19 09:33N 46°26' W 001°55'1212.0
2014-Oct-19 08:33N 46°16' W 001°45'1211.7
2014-Oct-19 07:33N 46°09' W 001°32'13 8.7
2014-Oct-19 06:06N 46°09' W 001°13'15 3.9
2014-Oct-19 02:18N 46°05' W 001°34'1 0.7
2014-Oct-19 01:33N 46°05' W 001°35'0 0.0
2014-Oct-19 00:33N 46°05' W 001°35'8 7.6
2014-Oct-18 23:33N 46°06' W 001°24'8 8.1
2014-Oct-18 22:33N 46°09' W 001°13'0 0.0
2014-Oct-18 21:34N 46°09' W 001°13'17 4.9
2014-Oct-18 18:10N 46°11' W 001°38'610.6
2014-Oct-18 17:33N 46°15' W 001°44'1010.2
2014-Oct-18 16:33N 46°23' W 001°53'1010.0
2014-Oct-18 15:33N 46°31' W 002°02'1110.9
2014-Oct-18 14:33N 46°41' W 002°11'1111.3
2014-Oct-18 13:33N 46°49' W 002°21'16 4.0
2014-Oct-18 09:31N 47°05' W 002°21'0 0.4
2014-Oct-18 08:33N 47°06' W 002°21'10 9.7
2014-Oct-18 07:31N 47°15' W 002°14'10 1.0
2014-Oct-17 21:33N 47°06' W 002°21'8 2.3
2014-Oct-17 18:14N 47°08' W 002°32'811.6
2014-Oct-17 17:33N 47°11' W 002°43'1511.5
2014-Oct-17 16:14N 47°20' W 003°02'811.1
2014-Oct-17 15:33N 47°25' W 003°10'1111.1
2014-Oct-17 14:33N 47°30' W 003°24'1111.4
2014-Oct-17 13:33N 47°37' W 003°37'  
2014-Oct-13 03:23N 47°41' W 003°33'6 7.6
2014-Oct-13 02:33N 47°40' W 003°24'0 0.0
2014-Oct-13 01:33N 47°40' W 003°24'0 0.0
2014-Oct-13 00:33N 47°40' W 003°24'0 0.0
2014-Oct-12 23:33N 47°40' W 003°24'0 0.0
2014-Oct-12 22:33N 47°40' W 003°24'0 0.0
2014-Oct-12 21:33N 47°40' W 003°24'3 3.0
2014-Oct-12 20:33N 47°43' W 003°22'3 3.0
2014-Oct-12 19:33N 47°45' W 003°19'0 0.0
2014-Oct-12 18:33N 47°45' W 003°19'6 5.8
2014-Oct-12 17:33N 47°39' W 003°22'1312.6
2014-Oct-12 16:33N 47°29' W 003°11'1312.8
2014-Oct-12 15:33N 47°19' W 003°00'1413.3
2014-Oct-12 14:30N 47°12' W 002°42'16 1.1
2014-Oct-12 00:29N 47°06' W 002°21'5 5.0
2014-Oct-11 23:24N 47°11' W 002°18'  

Dump ship's entire track history